createdAt,value
2019-01-12T00:02:25.432Z,100756.28
2019-01-12T00:05:06.960Z,100759.84
2019-01-12T00:07:41.173Z,100750.20
2019-01-12T00:10:14.698Z,100755.53
2019-01-12T00:12:47.624Z,100752.70
2019-01-12T00:15:21.299Z,100749.98
2019-01-12T00:17:54.851Z,100755.67
2019-01-12T00:20:27.831Z,100753.53
2019-01-12T00:23:01.054Z,100751.55
2019-01-12T00:25:35.580Z,100752.48
2019-01-12T00:28:09.949Z,100749.20
2019-01-12T00:30:46.917Z,100747.63
2019-01-12T00:33:21.381Z,100749.27
2019-01-12T00:35:55.039Z,100742.52
2019-01-12T00:38:28.041Z,100743.75
2019-01-12T00:41:02.629Z,100737.98
2019-01-12T00:43:38.216Z,100741.30
2019-01-12T00:46:11.285Z,100739.95
2019-01-12T00:48:45.387Z,100750.73
2019-01-12T00:51:21.102Z,100742.23
2019-01-12T00:53:54.571Z,100751.09
2019-01-12T00:56:28.140Z,100745.23
2019-01-12T00:59:01.107Z,100747.01
2019-01-12T01:01:34.193Z,100736.39
2019-01-12T01:04:07.687Z,100740.98
2019-01-12T01:06:40.776Z,100743.30
2019-01-12T01:09:13.719Z,100744.48
2019-01-12T01:11:47.330Z,100741.06
2019-01-12T01:14:20.239Z,100738.89
2019-01-12T01:16:53.256Z,100741.55
2019-01-12T01:19:27.670Z,100745.11
2019-01-12T01:22:00.769Z,100741.16
2019-01-12T01:24:33.650Z,100746.78
2019-01-12T01:27:07.117Z,100740.89
2019-01-12T01:29:40.024Z,100750.03
2019-01-12T01:32:14.485Z,100751.05
2019-01-12T01:34:48.987Z,100744.80
2019-01-12T01:37:21.966Z,100741.27
2019-01-12T01:39:54.994Z,100746.45
2019-01-12T01:42:29.948Z,100745.92
2019-01-12T01:45:06.132Z,100753.84
2019-01-12T01:47:39.764Z,100753.08
2019-01-12T01:50:16.700Z,100755.25
2019-01-12T01:52:49.696Z,100753.91
2019-01-12T01:55:23.362Z,100750.30
2019-01-12T01:57:56.903Z,100760.25
2019-01-12T02:00:29.932Z,100749.98
2019-01-12T02:03:02.900Z,100750.78
2019-01-12T02:05:36.544Z,100743.66
2019-01-12T02:08:09.529Z,100740.83
2019-01-12T02:10:42.760Z,100737.16
2019-01-12T02:13:17.281Z,100738.01
2019-01-12T02:15:50.352Z,100737.08
2019-01-12T02:18:23.216Z,100731.41
2019-01-12T02:20:57.273Z,100725.98
2019-01-12T02:23:31.072Z,100722.57
2019-01-12T02:26:04.296Z,100722.05
2019-01-12T02:28:37.908Z,100721.94
2019-01-12T02:31:10.876Z,100727.28
2019-01-12T02:33:44.912Z,100722.33
2019-01-12T02:36:18.232Z,100725.88
2019-01-12T02:38:51.489Z,100722.25
2019-01-12T02:41:24.706Z,100724.44
2019-01-12T02:43:58.263Z,100710.72
2019-01-12T02:46:31.505Z,100715.20
2019-01-12T02:49:04.671Z,100702.02
2019-01-12T02:51:38.047Z,100706.67
2019-01-12T02:54:11.001Z,100702.73
2019-01-12T02:56:44.627Z,100698.36
2019-01-12T02:59:18.014Z,100701.88
2019-01-12T03:01:51.032Z,100691.27
2019-01-12T03:04:23.988Z,100694.02
2019-01-12T03:06:57.301Z,100688.55
2019-01-12T03:09:30.355Z,100688.54
2019-01-12T03:12:03.771Z,100679.94
2019-01-12T03:14:37.105Z,100687.87
2019-01-12T03:17:09.989Z,100684.39
2019-01-12T03:19:42.964Z,100681.64
2019-01-12T03:22:16.359Z,100683.05
2019-01-12T03:24:49.303Z,100675.34
2019-01-12T03:27:22.227Z,100672.13
2019-01-12T03:29:55.755Z,100665.66
2019-01-12T03:32:28.700Z,100671.16
2019-01-12T03:35:01.772Z,100659.25
2019-01-12T03:37:35.302Z,100655.27
2019-01-12T03:40:14.782Z,100657.68
2019-01-12T03:42:48.102Z,100658.04
2019-01-12T03:45:23.071Z,100659.61
2019-01-12T03:47:56.050Z,100646.45
2019-01-12T03:50:29.073Z,100643.67
2019-01-12T03:53:01.984Z,100651.13
2019-01-12T03:55:35.005Z,100649.78
2019-01-12T03:58:07.986Z,100649.45
2019-01-12T04:00:41.386Z,100648.48
2019-01-12T04:03:14.463Z,100648.13
2019-01-12T04:05:47.764Z,100645.68
2019-01-12T04:08:21.093Z,100642.62
2019-01-12T04:10:54.171Z,100638.61
2019-01-12T04:13:27.112Z,100640.50
2019-01-12T04:16:00.585Z,100645.81
2019-01-12T04:18:33.486Z,100637.47
2019-01-12T04:21:06.566Z,100639.89
2019-01-12T04:23:39.868Z,100637.97
2019-01-12T04:26:12.893Z,100638.48
2019-01-12T04:28:45.840Z,100638.82
2019-01-12T04:31:19.270Z,100630.84
2019-01-12T04:33:52.428Z,100638.23
2019-01-12T04:36:25.483Z,100638.55
2019-01-12T04:38:58.833Z,100626.19
2019-01-12T04:41:31.837Z,100621.59
2019-01-12T04:44:04.875Z,100623.96
2019-01-12T04:46:38.224Z,100631.52
2019-01-12T04:49:11.175Z,100638.34
2019-01-12T04:51:44.164Z,100630.71
2019-01-12T04:54:17.539Z,100634.63
2019-01-12T04:56:50.612Z,100635.33
2019-01-12T04:59:23.571Z,100638.94
2019-01-12T05:01:57.000Z,100636.93
2019-01-12T05:04:29.996Z,100633.77
2019-01-12T05:07:03.048Z,100629.81
2019-01-12T05:09:37.560Z,100628.05
2019-01-12T05:12:11.053Z,100629.38
2019-01-12T05:14:44.428Z,100633.19
2019-01-12T05:17:18.593Z,100634.81
2019-01-12T05:19:52.360Z,100627.56
2019-01-12T05:22:25.570Z,100628.39
2019-01-12T05:25:03.094Z,100634.69
2019-01-12T05:27:36.259Z,100635.34
2019-01-12T05:30:14.939Z,100639.55
2019-01-12T05:32:47.927Z,100640.86
2019-01-12T05:35:21.246Z,100634.92
2019-01-12T05:37:54.756Z,100640.22
2019-01-12T05:40:27.744Z,100633.86
2019-01-12T05:43:00.787Z,100640.48
2019-01-12T05:45:34.372Z,100646.14
2019-01-12T05:48:07.350Z,100638.83
2019-01-12T05:50:40.260Z,100631.66
2019-01-12T05:53:13.741Z,100631.48
2019-01-12T05:55:46.604Z,100633.73
2019-01-12T05:58:19.693Z,100635.31
2019-01-12T06:00:53.329Z,100635.23
2019-01-12T06:03:26.241Z,100637.07
2019-01-12T06:05:59.358Z,100626.19
2019-01-12T06:08:32.488Z,100630.73
2019-01-12T06:11:05.442Z,100625.29
2019-01-12T06:13:38.991Z,100628.41
2019-01-12T06:16:12.720Z,100627.19
2019-01-12T06:18:49.076Z,100624.25
2019-01-12T06:21:22.135Z,100620.23
2019-01-12T06:23:55.660Z,100617.02
2019-01-12T06:26:28.675Z,100610.50
2019-01-12T06:29:01.737Z,100608.90
2019-01-12T06:31:35.255Z,100596.48
2019-01-12T06:34:10.677Z,100595.46
2019-01-12T06:36:44.176Z,100589.52
2019-01-12T06:39:17.876Z,100593.73
2019-01-12T06:41:50.939Z,100591.86
2019-01-12T06:44:24.463Z,100591.03
2019-01-12T06:46:57.923Z,100593.95
2019-01-12T06:49:30.859Z,100586.88
2019-01-12T06:52:03.884Z,100573.96
2019-01-12T06:54:37.412Z,100578.86
2019-01-12T06:57:13.536Z,100564.66
2019-01-12T06:59:46.561Z,100563.38
2019-01-12T07:02:21.047Z,100558.44
2019-01-12T07:04:54.791Z,100570.15
2019-01-12T07:07:28.428Z,100563.25
2019-01-12T07:10:03.655Z,100555.33
2019-01-12T07:12:36.616Z,100555.59
2019-01-12T07:15:16.017Z,100557.84
2019-01-12T07:17:49.993Z,100568.25
2019-01-12T07:20:24.033Z,100559.50
2019-01-12T07:22:57.528Z,100559.70
2019-01-12T07:25:30.747Z,100559.45
2019-01-12T07:28:03.834Z,100542.69
2019-01-12T07:30:37.391Z,100548.13
2019-01-12T07:33:10.295Z,100550.90
2019-01-12T07:35:45.000Z,100542.57
2019-01-12T07:38:18.301Z,100541.64
2019-01-12T07:40:51.607Z,100533.31
2019-01-12T07:43:24.578Z,100539.24
2019-01-12T07:45:59.119Z,100535.16
2019-01-12T07:48:32.098Z,100539.10
2019-01-12T07:51:05.164Z,100525.94
2019-01-12T07:53:38.757Z,100525.37
2019-01-12T07:56:12.202Z,100523.71
2019-01-12T07:58:45.251Z,100517.72
2019-01-12T08:01:19.722Z,100517.66
2019-01-12T08:03:53.309Z,100513.12
2019-01-12T08:06:26.320Z,100507.98
2019-01-12T08:08:59.813Z,100491.70
2019-01-12T08:11:32.867Z,100496.50
2019-01-12T08:14:06.122Z,100497.16
2019-01-12T08:16:39.675Z,100489.72
2019-01-12T08:19:14.574Z,100483.59
2019-01-12T08:21:47.608Z,100484.59
2019-01-12T08:24:21.005Z,100482.41
2019-01-12T08:26:54.179Z,100476.35
2019-01-12T08:29:27.289Z,100468.33
2019-01-12T08:32:00.973Z,100467.75
2019-01-12T08:34:33.895Z,100471.16
2019-01-12T08:37:06.877Z,100463.66
2019-01-12T08:39:40.230Z,100456.92
2019-01-12T08:42:14.108Z,100457.16
2019-01-12T08:44:47.012Z,100455.56
2019-01-12T08:47:21.299Z,100452.34
2019-01-12T08:49:54.287Z,100460.07
2019-01-12T08:52:27.319Z,100477.31
2019-01-12T08:55:00.865Z,100484.72
2019-01-12T08:57:33.904Z,100497.77
2019-01-12T09:00:14.628Z,100487.98
2019-01-12T09:02:49.117Z,100471.86
2019-01-12T09:05:22.053Z,100461.86
2019-01-12T09:07:55.890Z,100459.34
2019-01-12T09:10:28.861Z,100455.19
2019-01-12T09:13:02.068Z,100449.27
2019-01-12T09:15:35.654Z,100441.32
2019-01-12T09:18:08.803Z,100438.33
2019-01-12T09:20:41.813Z,100428.81
2019-01-12T09:23:15.295Z,100423.08
2019-01-12T09:25:48.425Z,100408.00
2019-01-12T09:28:21.622Z,100415.94
2019-01-12T09:30:57.148Z,100417.06
2019-01-12T09:33:30.232Z,100421.59
2019-01-12T09:36:03.264Z,100416.13
2019-01-12T09:38:37.632Z,100420.69
2019-01-12T09:41:11.446Z,100415.47
2019-01-12T09:43:44.622Z,100409.33
2019-01-12T09:46:18.044Z,100409.41
2019-01-12T09:48:52.544Z,100401.58
2019-01-12T09:51:25.570Z,100401.20
2019-01-12T09:53:59.146Z,100390.69
2019-01-12T09:56:32.127Z,100391.06
2019-01-12T09:59:06.130Z,100383.50
2019-01-12T10:01:40.643Z,100374.54
2019-01-12T10:04:14.817Z,100365.98
2019-01-12T10:06:47.975Z,100360.70
2019-01-12T10:09:21.800Z,100362.45
2019-01-12T10:11:54.699Z,100351.27
2019-01-12T10:14:27.731Z,100348.05
2019-01-12T10:17:01.736Z,100345.58
2019-01-12T10:19:35.803Z,100331.66
2019-01-12T10:22:08.827Z,100326.32
2019-01-12T10:24:43.620Z,100333.39
2019-01-12T10:27:17.409Z,100327.17
2019-01-12T10:29:51.518Z,100324.20
2019-01-12T10:32:26.003Z,100317.63
2019-01-12T10:34:59.649Z,100320.05
2019-01-12T10:37:32.574Z,100316.72
2019-01-12T10:40:09.487Z,100330.36
2019-01-12T10:42:42.509Z,100328.03
2019-01-12T10:45:18.435Z,100304.63
2019-01-12T10:48:02.515Z,100299.36
2019-01-12T10:50:54.735Z,100302.83
2019-01-12T10:53:51.244Z,100294.45
2019-01-12T10:56:32.568Z,100292.03
2019-01-12T10:59:21.803Z,100300.17
2019-01-12T11:02:09.455Z,100273.53
2019-01-12T11:04:43.542Z,100271.04
2019-01-12T11:07:23.723Z,100253.87
2019-01-12T11:10:04.595Z,100266.73
2019-01-12T11:12:39.972Z,100257.37
2019-01-12T11:15:19.041Z,100248.55
2019-01-12T11:17:57.038Z,100235.44
2019-01-12T11:20:37.106Z,100228.44
2019-01-12T11:23:12.146Z,100244.47
2019-01-12T11:25:47.293Z,100230.39
2019-01-12T11:28:30.522Z,100233.14
2019-01-12T11:31:19.733Z,100229.97
2019-01-12T11:33:54.038Z,100221.26
2019-01-12T11:36:28.329Z,100224.41
2019-01-12T11:39:05.142Z,100216.00
2019-01-12T11:41:38.254Z,100207.25
2019-01-12T11:44:12.281Z,100202.05
2019-01-12T11:46:45.314Z,100191.06
2019-01-12T11:49:18.430Z,100189.34
2019-01-12T11:51:51.451Z,100179.23
2019-01-12T11:54:24.425Z,100178.44
2019-01-12T11:56:57.980Z,100174.34
2019-01-12T11:59:31.018Z,100164.73
2019-01-12T12:02:04.328Z,100171.52
2019-01-12T12:04:37.961Z,100166.84
2019-01-12T12:07:12.141Z,100148.42
2019-01-12T12:09:47.644Z,100136.52
2019-01-12T12:12:21.266Z,100119.75
2019-01-12T12:14:54.638Z,100116.44
2019-01-12T12:17:27.543Z,100135.84
2019-01-12T12:20:01.057Z,100105.97
2019-01-12T12:22:36.048Z,100099.93
2019-01-12T12:25:09.606Z,100096.11
2019-01-12T12:27:43.734Z,100087.62
2019-01-12T12:30:25.427Z,100076.59
2019-01-12T12:32:58.516Z,100071.52
2019-01-12T12:35:37.681Z,100068.51
2019-01-12T12:38:13.520Z,100062.13
2019-01-12T12:40:46.578Z,100048.67
2019-01-12T12:43:21.197Z,100045.50
2019-01-12T12:45:54.173Z,100037.03
2019-01-12T12:48:27.196Z,100042.44
2019-01-12T12:51:00.959Z,100027.66
2019-01-12T12:53:34.453Z,100017.53
2019-01-12T12:56:07.697Z,100016.56
2019-01-12T12:58:41.394Z,100013.45
2019-01-12T13:01:14.562Z,100022.84
2019-01-12T13:03:47.932Z,100007.11
2019-01-12T13:06:21.641Z,100000.84
2019-01-12T13:08:56.174Z,99998.52
2019-01-12T13:11:31.451Z,99996.02
2019-01-12T13:14:04.731Z,100005.56
2019-01-12T13:16:38.008Z,99976.88
2019-01-12T13:19:11.455Z,99973.81
2019-01-12T13:21:44.574Z,99968.81
2019-01-12T13:24:17.620Z,99955.46
2019-01-12T13:26:51.990Z,99955.96
2019-01-12T13:29:25.126Z,99965.92
2019-01-12T13:31:58.141Z,99946.41
2019-01-12T13:34:31.596Z,99941.92
2019-01-12T13:37:04.574Z,99946.27
2019-01-12T13:39:37.557Z,99936.10
2019-01-12T13:42:11.392Z,99936.33
2019-01-12T13:44:47.845Z,99937.83
2019-01-12T13:47:21.634Z,99934.25
2019-01-12T13:49:59.319Z,99931.36
2019-01-12T13:54:09.246Z,99922.82
2019-01-12T13:56:42.897Z,99919.21
2019-01-12T13:59:17.144Z,99923.57
2019-01-12T14:01:50.690Z,99908.45
2019-01-12T14:04:25.478Z,99908.03
2019-01-12T14:06:59.099Z,99913.66
2019-01-12T14:09:32.449Z,99899.52
2019-01-12T14:12:05.632Z,99896.29
2019-01-12T14:14:38.594Z,99905.16
2019-01-12T14:17:14.501Z,99904.02
2019-01-12T14:19:48.048Z,99903.81
2019-01-12T14:22:23.420Z,99896.66
2019-01-12T14:25:00.767Z,99895.36
2019-01-12T14:27:37.040Z,99898.98
2019-01-12T14:30:17.980Z,99884.70
2019-01-12T14:33:13.756Z,99890.65
2019-01-12T14:36:01.221Z,99878.05
2019-01-12T14:38:35.413Z,99882.68
2019-01-12T14:41:19.852Z,99877.73
2019-01-12T14:43:53.033Z,99873.28
2019-01-12T14:46:48.584Z,99872.95
2019-01-12T14:49:24.460Z,99863.72
2019-01-12T14:52:12.645Z,99861.02
2019-01-12T14:54:48.390Z,99863.99
2019-01-12T14:57:33.412Z,99861.41
2019-01-12T15:00:36.902Z,99868.84
2019-01-12T15:03:20.164Z,99873.31
2019-01-12T15:05:59.385Z,99873.39
2019-01-12T15:08:37.978Z,99875.97
2019-01-12T15:11:12.589Z,99871.40
2019-01-12T15:13:47.598Z,99881.31
2019-01-12T15:16:20.694Z,99873.48
2019-01-12T15:18:57.201Z,99867.71
2019-01-12T15:21:45.867Z,99869.16
2019-01-12T15:24:23.811Z,99866.41
2019-01-12T15:27:38.015Z,99865.52
2019-01-12T15:30:22.281Z,99871.47
2019-01-12T15:33:03.466Z,99858.71
2019-01-12T15:35:47.280Z,99870.11
2019-01-12T15:38:21.299Z,99860.63
2019-01-12T15:40:57.149Z,99862.69
2019-01-12T15:43:45.277Z,99865.37
2019-01-12T15:46:18.565Z,99858.94
2019-01-12T15:48:52.286Z,99848.36
2019-01-12T15:51:26.042Z,99840.94
2019-01-12T15:54:09.224Z,99849.74
2019-01-12T15:56:43.398Z,99845.61
2019-01-12T15:59:18.760Z,99834.77
2019-01-12T16:01:58.214Z,99824.19
2019-01-12T16:04:33.385Z,99813.84
2019-01-12T16:07:08.621Z,99817.55
2019-01-12T16:09:43.801Z,99817.55
2019-01-12T16:12:21.167Z,99820.02
2019-01-12T16:15:15.179Z,99810.73
2019-01-12T16:17:50.484Z,99804.50
2019-01-12T16:20:38.869Z,99804.23
2019-01-12T16:23:14.830Z,99795.09
2019-01-12T16:25:50.294Z,99806.72
2019-01-12T16:28:24.608Z,99815.41
2019-01-12T16:31:16.513Z,99801.59
2019-01-12T16:33:50.613Z,99800.83
2019-01-12T16:36:28.552Z,99792.12
2019-01-12T16:39:12.793Z,99793.34
2019-01-12T16:41:47.361Z,99792.67
2019-01-12T16:44:33.731Z,99790.64
2019-01-12T16:47:19.396Z,99787.11
2019-01-12T16:49:53.594Z,99778.68
2019-01-12T16:52:45.468Z,99787.55
2019-01-12T16:55:54.198Z,99783.86
2019-01-12T16:58:37.125Z,99791.74
2019-01-12T17:01:10.278Z,99790.91
2019-01-12T17:03:45.500Z,99788.42
2019-01-12T17:06:22.141Z,99783.52
2019-01-12T17:08:55.291Z,99770.37
2019-01-12T17:11:28.217Z,99772.84
2019-01-12T17:14:01.529Z,99768.98
2019-01-12T17:16:35.192Z,99776.59
2019-01-12T17:19:08.296Z,99757.95
2019-01-12T17:21:41.709Z,99767.10
2019-01-12T17:24:16.708Z,99760.66
2019-01-12T17:26:49.634Z,99749.58
2019-01-12T17:29:22.695Z,99746.89
2019-01-12T17:31:56.238Z,99750.63
2019-01-12T17:34:29.502Z,99752.72
2019-01-12T17:37:02.631Z,99749.53
2019-01-12T17:39:36.315Z,99752.08
2019-01-12T17:42:09.458Z,99747.45
2019-01-12T17:44:42.644Z,99749.87
2019-01-12T17:47:17.250Z,99750.36
2019-01-12T17:49:50.257Z,99748.87
2019-01-12T17:52:23.690Z,99741.21
2019-01-12T17:54:57.970Z,99754.21
2019-01-12T17:57:31.722Z,99753.66
2019-01-12T18:00:09.709Z,99750.53
2019-01-12T18:02:42.848Z,99746.94
2019-01-12T18:05:20.427Z,99756.86
2019-01-12T18:07:53.405Z,99757.70
2019-01-12T18:10:26.488Z,99765.17
2019-01-12T18:13:00.076Z,99760.34
2019-01-12T18:15:34.625Z,99758.45
2019-01-12T18:18:08.244Z,99759.35
2019-01-12T18:20:42.093Z,99766.83
2019-01-12T18:23:15.272Z,99770.03
2019-01-12T18:25:48.511Z,99767.39
2019-01-12T18:28:22.010Z,99772.34
2019-01-12T18:30:56.298Z,99765.45
2019-01-12T18:33:29.483Z,99771.53
2019-01-12T18:36:03.118Z,99773.17
2019-01-12T18:38:36.242Z,99764.08
2019-01-12T18:41:09.273Z,99759.80
2019-01-12T18:43:45.083Z,99771.91
2019-01-12T18:46:19.798Z,99756.10
2019-01-12T18:48:54.905Z,99761.88
2019-01-12T18:51:29.272Z,99768.61
2019-01-12T18:54:04.881Z,99752.23
2019-01-12T18:56:42.200Z,99763.76
2019-01-12T18:59:16.767Z,99764.39
2019-01-12T19:02:14.965Z,99756.42
2019-01-12T19:06:03.004Z,99767.77
2019-01-12T19:08:57.539Z,99766.56
2019-01-12T19:11:33.435Z,99761.95
2019-01-12T19:14:10.045Z,99763.53
2019-01-12T19:16:52.607Z,99767.00
2019-01-12T19:19:25.686Z,99758.69
2019-01-12T19:22:00.529Z,99761.61
2019-01-12T19:24:35.562Z,99752.47
2019-01-12T19:27:09.413Z,99764.53
2019-01-12T19:29:46.047Z,99760.19
2019-01-12T19:32:20.642Z,99744.30
2019-01-12T19:34:53.969Z,99747.95
2019-01-12T19:37:30.972Z,99758.75
2019-01-12T19:40:06.366Z,99752.47
2019-01-12T19:42:39.921Z,99758.02
2019-01-12T19:45:17.591Z,99752.14
2019-01-12T19:47:52.236Z,99741.61
2019-01-12T19:50:27.809Z,99738.41
2019-01-12T19:53:02.402Z,99742.17
2019-01-12T19:55:36.426Z,99747.63
2019-01-12T19:58:10.903Z,99748.00
2019-01-12T20:00:45.754Z,99746.52
2019-01-12T20:03:19.685Z,99747.17
2019-01-12T20:05:53.771Z,99738.20
2019-01-12T20:08:27.831Z,99729.50
2019-01-12T20:11:01.631Z,99723.05
2019-01-12T20:13:35.387Z,99725.22
2019-01-12T20:16:09.157Z,99725.55
2019-01-12T20:18:42.232Z,99731.59
2019-01-12T20:21:19.098Z,99730.70
2019-01-12T20:24:00.257Z,99733.07
2019-01-12T20:26:40.142Z,99732.80
2019-01-12T20:29:26.378Z,99730.87
2019-01-12T20:32:45.166Z,99723.27
2019-01-12T20:36:11.520Z,99725.25
2019-01-12T20:39:58.796Z,99719.91
2019-01-12T20:43:37.283Z,99732.91
2019-01-12T20:46:59.955Z,99729.31
2019-01-12T20:50:21.991Z,99725.57
2019-01-12T20:53:34.563Z,99727.78
2019-01-12T20:57:23.387Z,99724.81
2019-01-12T21:00:58.502Z,99729.77
2019-01-12T21:04:48.112Z,99720.47
2019-01-12T21:07:55.213Z,99717.70
2019-01-12T21:11:11.412Z,99708.41
2019-01-12T21:14:19.351Z,99706.70
2019-01-12T21:17:03.127Z,99703.56
2019-01-12T21:19:36.494Z,99710.61
2019-01-12T21:22:10.352Z,99716.61
2019-01-12T21:24:45.944Z,99700.92
2019-01-12T21:27:28.116Z,99708.62
2019-01-12T21:30:03.829Z,99704.93
2019-01-12T21:32:38.524Z,99707.36
2019-01-12T21:35:12.595Z,99707.47
2019-01-12T21:37:45.910Z,99700.75
2019-01-12T21:40:19.852Z,99700.42
2019-01-12T21:42:54.354Z,99698.86
2019-01-12T21:45:27.404Z,99705.48
2019-01-12T21:48:00.531Z,99699.86
2019-01-12T21:50:35.972Z,99697.77
2019-01-12T21:53:09.736Z,99702.47
2019-01-12T21:55:43.916Z,99702.06
2019-01-12T21:58:18.923Z,99705.42
2019-01-12T22:00:53.450Z,99699.77
2019-01-12T22:03:28.131Z,99704.94
2019-01-12T22:06:02.445Z,99699.77
2019-01-12T22:08:36.913Z,99700.59
2019-01-12T22:11:09.945Z,99696.84
2019-01-12T22:13:43.584Z,99696.41
2019-01-12T22:16:16.620Z,99695.30
2019-01-12T22:18:52.828Z,99697.78
2019-01-12T22:21:26.489Z,99696.08
2019-01-12T22:24:00.627Z,99695.03
2019-01-12T22:26:35.442Z,99701.10
2019-01-12T22:29:08.905Z,99705.16
2019-01-12T22:31:43.018Z,99700.44
2019-01-12T22:34:17.845Z,99704.45
2019-01-12T22:36:55.025Z,99703.45
2019-01-12T22:39:27.987Z,99700.91
2019-01-12T22:42:01.403Z,99701.48
2019-01-12T22:44:36.476Z,99711.02
2019-01-12T22:47:09.363Z,99706.44
2019-01-12T22:49:43.243Z,99704.83
2019-01-12T22:52:18.539Z,99701.29
2019-01-12T22:54:53.619Z,99698.39
2019-01-12T22:57:28.798Z,99702.63
2019-01-12T23:00:15.977Z,99698.87
2019-01-12T23:02:49.187Z,99698.59
2019-01-12T23:05:24.314Z,99694.80
2019-01-12T23:07:58.324Z,99705.92
2019-01-12T23:10:31.920Z,99695.67
2019-01-12T23:13:06.549Z,99690.98
2019-01-12T23:15:42.421Z,99694.41
2019-01-12T23:18:16.609Z,99690.43
2019-01-12T23:20:52.725Z,99687.74
2019-01-12T23:23:25.914Z,99685.54
2019-01-12T23:26:02.193Z,99678.44
2019-01-12T23:28:36.451Z,99687.84
2019-01-12T23:31:10.466Z,99679.08
2019-01-12T23:33:43.534Z,99669.49
2019-01-12T23:36:16.551Z,99682.27
2019-01-12T23:38:51.558Z,99672.47
2019-01-12T23:41:24.554Z,99672.63
2019-01-12T23:43:58.997Z,99670.82
2019-01-12T23:46:33.005Z,99677.47
2019-01-12T23:49:07.005Z,99676.45
2019-01-12T23:51:41.141Z,99674.90
2019-01-12T23:54:15.400Z,99675.77
2019-01-12T23:56:48.989Z,99673.57
2019-01-12T23:59:21.994Z,99669.45
